Time;durP1;ratioP1;P1;durP2;ratioP2;P2;SDS_P1;SDS_P2;PMS_P1;PMS_P2;Temp;Humidity;BMP_temperature;BMP_pressure;BME280_temperature;BME280_humidity;BME280_pressure;Samples;Min_cycle;Max_cycle;Signal;HPM_P1;HPM_P2
2022/07/13 00:01:55;;;;;;;3.17;1.50;;;;;;;19.08;65.78;100721.25;4960691;28;20598;-69
2022/07/13 00:04:20;;;;;;;2.53;1.60;;;;;;;19.28;66.69;100718.81;4969445;28;20648;-69
2022/07/13 00:06:45;;;;;;;4.23;1.40;;;;;;;19.40;66.35;100712.59;4990180;28;20256;-68
2022/07/13 00:09:11;;;;;;;3.30;1.30;;;;;;;19.50;64.08;100723.09;4974956;28;20211;-69
2022/07/13 00:11:36;;;;;;;3.43;1.40;;;;;;;19.61;63.29;100723.03;4977490;28;20230;-68
2022/07/13 00:14:02;;;;;;;1.53;1.23;;;;;;;19.69;62.61;100725.00;4978582;28;20630;-68
2022/07/13 00:16:27;;;;;;;4.07;1.50;;;;;;;19.65;63.34;100719.19;4971064;28;20220;-68
2022/07/13 00:18:53;;;;;;;2.13;1.47;;;;;;;19.74;61.59;100729.84;4965445;28;20191;-69
2022/07/13 00:21:18;;;;;;;8.73;1.57;;;;;;;19.60;62.54;100728.38;4974959;28;20769;-68
2022/07/13 00:23:43;;;;;;;3.23;1.40;;;;;;;19.48;63.22;100730.22;4974168;28;20208;-68
2022/07/13 00:26:09;;;;;;;1.17;1.13;;;;;;;19.61;62.53;100715.19;4975246;28;20275;-68
2022/07/13 00:28:34;;;;;;;4.20;1.40;;;;;;;19.81;61.87;100721.38;4974872;28;20203;-69
2022/07/13 00:30:59;;;;;;;1.40;1.10;;;;;;;19.98;61.10;100713.91;4972534;28;20238;-69
2022/07/13 00:33:25;;;;;;;1.40;1.10;;;;;;;20.05;60.51;100712.44;4971722;28;20551;-69
2022/07/13 00:35:50;;;;;;;4.03;1.50;;;;;;;20.03;61.25;100710.91;4975163;28;20184;-68
2022/07/13 00:38:15;;;;;;;3.17;1.57;;;;;;;19.81;62.50;100704.88;4973572;28;20283;-69
2022/07/13 00:40:41;;;;;;;7.00;1.50;;;;;;;19.83;62.75;100705.59;4966143;28;20318;-68
2022/07/13 00:43:06;;;;;;;3.23;1.40;;;;;;;19.87;63.02;100706.16;4987611;28;21976;-68
2022/07/13 00:45:31;;;;;;;5.43;1.40;;;;;;;19.83;62.75;100697.75;4972146;28;20196;-68
2022/07/13 00:47:57;;;;;;;3.40;1.47;;;;;;;19.77;61.76;100693.03;4969559;28;20203;-69
2022/07/13 00:50:23;;;;;;;2.13;1.40;;;;;;;19.89;61.86;100693.81;4967130;28;20231;-69
2022/07/13 00:52:49;;;;;;;17.33;1.70;;;;;;;19.99;61.64;100689.47;4973495;28;20210;-69
2022/07/13 00:55:15;;;;;;;2.20;1.33;;;;;;;20.02;61.71;100685.75;4974602;28;20525;-69
2022/07/13 00:57:40;;;;;;;4.63;1.67;;;;;;;20.01;60.74;100687.56;4989914;28;20192;-68
2022/07/13 01:00:10;;;;;;;7.70;1.70;;;;;;;20.02;60.39;100688.38;4962949;28;20207;-68
2022/07/13 01:02:36;;;;;;;9.13;1.63;;;;;;;20.02;60.10;100683.16;4973427;28;20272;-68
2022/07/13 01:05:02;;;;;;;1.90;1.73;;;;;;;20.02;59.84;100690.97;4974322;28;20585;-68
2022/07/13 01:07:31;;;;;;;4.83;1.60;;;;;;;20.03;59.29;100690.84;4972803;28;20176;-68
2022/07/13 01:09:56;;;;;;;6.63;1.70;;;;;;;20.04;59.70;100689.06;4973427;28;20196;-68
2022/07/13 01:12:22;;;;;;;4.77;1.50;;;;;;;20.11;59.54;100688.41;4963550;28;20223;-68
2022/07/13 01:14:48;;;;;;;3.17;1.40;;;;;;;20.08;59.94;100685.25;4974438;28;20184;-68
2022/07/13 01:17:13;;;;;;;2.50;1.53;;;;;;;20.12;59.79;100671.78;4971954;28;20180;-67
2022/07/13 01:19:39;;;;;;;5.53;1.60;;;;;;;19.98;60.28;100679.97;4974251;28;20182;-68
2022/07/13 01:22:08;;;;;;;4.70;1.63;;;;;;;19.78;61.32;100673.81;4978921;28;20222;-68
2022/07/13 01:24:34;;;;;;;4.77;1.70;;;;;;;19.63;62.84;100670.72;4969546;28;20177;-68
2022/07/13 01:27:00;;;;;;;3.40;1.60;;;;;;;19.76;62.72;100679.16;4967234;28;20191;-68
2022/07/13 01:29:26;;;;;;;3.13;1.53;;;;;;;19.88;61.75;100682.53;4973556;28;20287;-68
2022/07/13 01:31:58;;;;;;;6.30;1.80;;;;;;;19.81;61.71;100681.41;4961799;28;21037;-68
2022/07/13 01:34:24;;;;;;;2.63;1.50;;;;;;;19.88;62.32;100682.53;4958493;28;20185;-68
2022/07/13 01:36:49;;;;;;;3.30;1.40;;;;;;;19.90;61.00;100685.03;4973874;28;20180;-68
2022/07/13 01:39:14;;;;;;;3.83;1.60;;;;;;;19.81;61.87;100681.41;4973535;28;20188;-68
2022/07/13 01:41:40;;;;;;;5.97;1.67;;;;;;;19.89;64.29;100693.81;4975978;28;20219;-68
2022/07/13 01:44:05;;;;;;;3.80;1.50;;;;;;;19.88;64.70;100698.19;4976770;28;20190;-67
2022/07/13 01:46:31;;;;;;;2.60;1.70;;;;;;;19.87;64.27;100693.13;4972994;28;21049;-68
2022/07/13 01:48:57;;;;;;;1.80;1.50;;;;;;;19.86;64.07;100689.69;4973310;28;20228;-68
2022/07/13 01:51:22;;;;;;;1.60;1.50;;;;;;;19.90;65.79;100692.88;4973696;28;20247;-68
2022/07/13 01:53:47;;;;;;;4.27;1.77;;;;;;;19.88;65.97;100692.16;4972268;28;20198;-69
2022/07/13 01:56:13;;;;;;;2.87;1.53;;;;;;;19.77;66.90;100690.41;4973698;28;20658;-68
2022/07/13 01:58:39;;;;;;;5.83;1.70;;;;;;;19.75;67.10;100684.53;4973061;28;20591;-68
2022/07/13 02:01:04;;;;;;;4.10;1.63;;;;;;;19.58;68.81;100680.72;4971387;28;20662;-68
2022/07/13 02:03:31;;;;;;;5.13;1.70;;;;;;;19.41;70.58;100685.56;4980631;28;20332;-68
2022/07/13 02:05:57;;;;;;;3.57;1.57;;;;;;;19.42;71.25;100681.16;4987947;28;20689;-69
2022/07/13 02:08:23;;;;;;;4.43;1.40;;;;;;;19.40;71.72;100668.25;4988014;28;20302;-68
2022/07/13 02:10:48;;;;;;;2.57;1.47;;;;;;;19.11;73.30;100666.22;4968959;28;20239;-69
2022/07/13 02:13:14;;;;;;;2.90;1.60;;;;;;;18.96;74.00;100655.28;4972353;28;20184;-68
2022/07/13 02:15:40;;;;;;;2.33;1.50;;;;;;;19.04;73.75;100652.06;4988148;28;20634;-68
2022/07/13 02:18:06;;;;;;;1.23;1.13;;;;;;;19.13;72.74;100660.91;4972997;28;20184;-67
2022/07/13 02:20:32;;;;;;;2.17;1.70;;;;;;;19.31;71.62;100661.16;4966035;28;20247;-68
2022/07/13 02:22:57;;;;;;;2.70;1.70;;;;;;;19.45;70.38;100660.84;4984191;28;20203;-68
2022/07/13 02:25:23;;;;;;;2.57;1.57;;;;;;;19.51;70.02;100654.28;4973286;28;20630;-68
2022/07/13 02:27:48;;;;;;;4.10;1.47;;;;;;;19.56;69.58;100656.50;4972019;28;20196;-68
2022/07/13 02:30:15;;;;;;;4.10;1.30;;;;;;;19.60;69.25;100657.94;4952635;28;20195;-68
2022/07/13 02:32:43;;;;;;;3.97;1.83;;;;;;;19.65;68.82;100647.94;4970841;28;20173;-68
2022/07/13 02:35:08;;;;;;;3.97;1.60;;;;;;;19.68;69.19;100645.03;4961936;28;20404;-68
2022/07/13 02:37:34;;;;;;;1.87;1.50;;;;;;;19.67;70.43;100651.22;4973034;28;20543;-67
2022/07/13 02:39:59;;;;;;;2.03;1.43;;;;;;;19.62;70.29;100645.56;4971213;28;20227;-68
2022/07/13 02:42:25;;;;;;;2.67;1.77;;;;;;;19.46;71.06;100644.25;4978171;28;20310;-68
2022/07/13 02:44:51;;;;;;;1.60;1.50;;;;;;;19.52;70.96;100653.34;4973053;28;20177;-68
2022/07/13 02:47:17;;;;;;;1.77;1.30;;;;;;;19.59;71.64;100654.47;4971761;28;20172;-68
2022/07/13 02:49:42;;;;;;;2.60;1.33;;;;;;;19.54;72.33;100654.03;4970970;28;20270;-68
2022/07/13 02:52:07;;;;;;;1.83;1.43;;;;;;;19.35;73.00;100652.16;4964147;28;20246;-67
2022/07/13 02:54:33;;;;;;;5.47;1.43;;;;;;;19.24;73.37;100642.59;4973006;28;20192;-68
2022/07/13 02:56:58;;;;;;;2.73;1.30;;;;;;;19.29;73.97;100645.66;4973127;28;20191;-68
2022/07/13 02:59:24;;;;;;;3.47;1.50;;;;;;;19.32;73.84;100639.34;4972483;28;20635;-68
2022/07/13 03:01:49;;;;;;;3.97;1.40;;;;;;;19.37;72.95;100631.16;4951975;28;20242;-68
2022/07/13 03:04:14;;;;;;;3.93;1.70;;;;;;;19.33;72.32;100630.56;4972392;28;20500;-68
2022/07/13 03:06:39;;;;;;;3.43;1.37;;;;;;;19.32;71.71;100634.13;4972819;28;20263;-67
2022/07/13 03:09:05;;;;;;;3.33;1.80;;;;;;;19.33;71.65;100634.00;4987328;28;20266;-68
2022/07/13 03:11:30;;;;;;;4.90;1.60;;;;;;;19.37;72.40;100633.75;4964929;28;20741;-67
2022/07/13 03:13:56;;;;;;;3.83;1.70;;;;;;;19.36;71.98;100638.13;4957865;28;20175;-68
2022/07/13 03:16:21;;;;;;;2.23;1.27;;;;;;;19.42;72.50;100631.59;4972762;28;20273;-68
2022/07/13 03:18:46;;;;;;;1.83;1.43;;;;;;;19.44;72.64;100633.09;4977511;28;20203;-68
2022/07/13 03:21:12;;;;;;;3.17;1.50;;;;;;;19.46;72.33;100636.44;4971620;28;20231;-68
2022/07/13 03:23:37;;;;;;;3.53;1.97;;;;;;;19.53;73.28;100641.94;4987695;28;20636;-68
2022/07/13 03:26:03;;;;;;;2.20;1.57;;;;;;;19.52;74.08;100646.34;4970531;28;20219;-67
2022/07/13 03:28:28;;;;;;;6.77;1.50;;;;;;;19.36;74.29;100651.16;4971865;28;20210;-61
2022/07/13 03:30:53;;;;;;;2.63;1.70;;;;;;;19.16;75.93;100653.66;4946862;28;20242;-60
2022/07/13 03:33:19;;;;;;;3.53;1.60;;;;;;;19.28;76.37;100653.59;4977314;28;20682;-60
2022/07/13 03:35:44;;;;;;;4.40;1.70;;;;;;;19.31;75.70;100651.56;4978185;28;20180;-60
2022/07/13 03:38:09;;;;;;;2.67;1.53;;;;;;;19.50;73.94;100644.81;4975525;28;20623;-59
2022/07/13 03:40:35;;;;;;;1.53;1.40;;;;;;;19.22;75.99;100636.66;4977907;28;20225;-59
2022/07/13 03:43:00;;;;;;;2.67;1.67;;;;;;;18.97;78.54;100633.47;5003631;28;20191;-59
2022/07/13 03:45:25;;;;;;;4.00;1.40;;;;;;;19.02;79.60;100639.13;4984427;28;20207;-59
2022/07/13 03:47:51;;;;;;;3.93;1.57;;;;;;;19.26;78.98;100635.47;4993986;28;20191;-59
2022/07/13 03:50:16;;;;;;;4.77;1.40;;;;;;;19.34;79.26;100640.06;4979197;28;20857;-60
2022/07/13 03:52:42;;;;;;;2.10;1.50;;;;;;;19.40;78.89;100641.31;4977500;28;20691;-59
2022/07/13 03:55:08;;;;;;;3.13;1.57;;;;;;;19.50;78.28;100629.19;4986704;28;20275;-60
2022/07/13 03:57:33;;;;;;;2.67;1.70;;;;;;;19.39;77.75;100632.66;4992380;28;20275;-59
2022/07/13 03:59:59;;;;;;;2.30;1.60;;;;;;;19.33;77.39;100635.78;4991803;28;20285;-59
2022/07/13 04:02:24;;;;;;;3.10;1.73;;;;;;;18.98;79.85;100634.31;4981923;28;20258;-59
2022/07/13 04:04:50;;;;;;;3.83;1.53;;;;;;;18.99;80.26;100626.38;4993837;28;20677;-59
2022/07/13 04:07:15;;;;;;;3.67;1.63;;;;;;;19.12;78.71;100634.00;4980055;28;20246;-59
2022/07/13 04:09:40;;;;;;;3.60;1.53;;;;;;;19.47;76.57;100626.81;4993193;28;20607;-59
2022/07/13 04:12:06;;;;;;;4.90;2.17;;;;;;;19.59;75.28;100620.56;4997303;28;20230;-59
2022/07/13 04:14:31;;;;;;;3.23;1.90;;;;;;;19.58;73.12;100624.13;4992317;28;20180;-59
2022/07/13 04:16:56;;;;;;;3.50;2.20;;;;;;;19.68;72.44;100622.41;4979920;28;20223;-58
2022/07/13 04:19:22;;;;;;;8.13;2.10;;;;;;;19.95;70.45;100628.03;4987470;28;20216;-59
2022/07/13 04:21:47;;;;;;;4.27;1.87;;;;;;;20.00;68.51;100629.28;4960046;28;20602;-58
2022/07/13 04:24:12;;;;;;;2.47;1.93;;;;;;;19.93;67.43;100628.16;4974179;28;20323;-58
2022/07/13 04:26:38;;;;;;;2.20;1.70;;;;;;;19.95;67.35;100638.47;4966623;28;20180;-59
2022/07/13 04:29:03;;;;;;;2.80;1.90;;;;;;;19.96;66.96;100638.34;4970282;28;20225;-59
2022/07/13 04:31:28;;;;;;;4.20;1.70;;;;;;;20.08;67.02;100652.13;4974806;28;20227;-58
2022/07/13 04:33:54;;;;;;;6.73;1.97;;;;;;;19.83;68.33;100643.78;4969119;28;20664;-60
2022/07/13 04:36:19;;;;;;;4.20;1.80;;;;;;;19.93;69.84;100648.22;4971481;28;20184;-58
2022/07/13 04:38:44;;;;;;;5.77;2.27;;;;;;;20.08;70.14;100646.06;4974739;28;20184;-59
2022/07/13 04:41:11;;;;;;;3.17;2.00;;;;;;;20.21;68.84;100640.63;4973336;28;20220;-59
2022/07/13 04:43:36;;;;;;;4.17;1.80;;;;;;;20.39;67.10;100643.41;4982496;28;20195;-59
2022/07/13 04:46:02;;;;;;;5.10;1.83;;;;;;;20.51;66.56;100649.34;4958568;28;20188;-59
2022/07/13 04:48:28;;;;;;;4.10;2.03;;;;;;;20.70;64.99;100646.78;4969797;28;20209;-58
2022/07/13 04:50:53;;;;;;;3.07;1.70;;;;;;;20.57;68.74;100639.16;4964916;28;20345;-58
2022/07/13 04:53:18;;;;;;;10.70;2.57;;;;;;;20.37;72.18;100645.34;4983493;28;20191;-59
2022/07/13 04:55:44;;;;;;;2.83;1.60;;;;;;;20.10;74.99;100644.97;4975122;28;20206;-60
2022/07/13 04:58:10;;;;;;;6.07;2.10;;;;;;;20.31;73.60;100646.69;4974496;28;20186;-59
2022/07/13 05:00:35;;;;;;;5.73;1.90;;;;;;;20.35;74.25;100642.84;4982084;28;20314;-59
2022/07/13 05:03:01;;;;;;;2.77;1.90;;;;;;;20.54;73.91;100641.22;4985129;28;20268;-59
2022/07/13 05:05:30;;;;;;;3.67;1.80;;;;;;;20.62;72.51;100639.59;4972003;28;20234;-59
2022/07/13 05:07:56;;;;;;;5.97;1.77;;;;;;;20.68;71.45;100640.00;4988891;28;20207;-59
2022/07/13 05:10:21;;;;;;;3.43;1.60;;;;;;;20.44;71.89;100639.44;4966160;28;20279;-59
2022/07/13 05:12:46;;;;;;;2.50;1.67;;;;;;;20.32;72.65;100641.31;4973143;28;20669;-60
2022/07/13 05:15:12;;;;;;;6.03;1.97;;;;;;;20.56;71.44;100641.94;4974216;28;20242;-60
2022/07/13 05:17:38;;;;;;;2.90;1.63;;;;;;;20.65;70.83;100638.47;4974214;28;20175;-62
2022/07/13 05:20:04;;;;;;;2.67;2.00;;;;;;;20.80;69.54;100637.16;4969509;28;20181;-60
2022/07/13 05:22:30;;;;;;;1.63;1.53;;;;;;;20.93;69.28;100636.06;4969349;28;20191;-60
2022/07/13 05:24:56;;;;;;;3.43;1.70;;;;;;;21.20;67.73;100634.50;4973921;28;20192;-59
2022/07/13 05:27:22;;;;;;;5.87;1.87;;;;;;;21.37;67.28;100638.19;4973846;28;20180;-59
2022/07/13 05:29:47;;;;;;;3.63;1.70;;;;;;;21.46;64.72;100645.22;4968791;28;20304;-60
2022/07/13 05:32:13;;;;;;;3.70;1.77;;;;;;;21.65;62.96;100636.50;4973293;28;20314;-59
2022/07/13 05:34:38;;;;;;;7.97;1.67;;;;;;;21.82;61.16;100642.78;4960107;28;20192;-59
2022/07/13 05:37:04;;;;;;;1.93;1.70;;;;;;;21.78;60.43;100638.81;4973640;28;20192;-60
2022/07/13 05:39:29;;;;;;;1.63;1.40;;;;;;;21.92;59.58;100646.19;4973301;28;20317;-60
2022/07/13 05:41:55;;;;;;;3.70;1.73;;;;;;;21.99;57.77;100645.59;4977707;28;20222;-59
2022/07/13 05:44:21;;;;;;;4.10;1.60;;;;;;;22.15;57.46;100642.34;4974474;28;20184;-60
2022/07/13 05:46:46;;;;;;;4.97;1.77;;;;;;;22.23;57.48;100648.50;4973696;28;20188;-60
2022/07/13 05:49:11;;;;;;;5.37;1.70;;;;;;;22.18;57.24;100645.50;4970955;28;20269;-59
2022/07/13 05:51:37;;;;;;;4.87;1.63;;;;;;;21.85;58.74;100650.34;4966961;28;20228;-59
2022/07/13 05:54:02;;;;;;;2.63;1.60;;;;;;;22.21;58.08;100644.41;4971430;28;20188;-59
2022/07/13 05:56:27;;;;;;;10.53;1.90;;;;;;;22.60;57.91;100652.06;4973513;28;20551;-61
2022/07/13 05:58:52;;;;;;;4.93;1.80;;;;;;;22.63;58.18;100648.31;4972979;28;20187;-60
2022/07/13 06:01:18;;;;;;;3.73;1.90;;;;;;;22.73;55.44;100644.63;4972615;28;20231;-60
2022/07/13 06:03:43;;;;;;;4.43;1.63;;;;;;;22.61;55.64;100651.06;4978568;28;20188;-60
2022/07/13 06:06:08;;;;;;;6.13;1.70;;;;;;;22.77;55.35;100642.53;4971431;28;20644;-60
2022/07/13 06:08:34;;;;;;;3.27;1.53;;;;;;;22.93;56.07;100638.41;4972015;28;20211;-60
2022/07/13 06:10:59;;;;;;;6.40;1.80;;;;;;;23.08;55.43;100647.38;4953825;28;20230;-60
2022/07/13 06:13:25;;;;;;;2.33;1.40;;;;;;;23.18;53.79;100644.69;4964542;28;20177;-61
2022/07/13 06:15:50;;;;;;;3.57;1.57;;;;;;;22.91;54.40;100641.19;4972679;28;20200;-60
2022/07/13 06:18:15;;;;;;;5.37;1.73;;;;;;;23.17;54.89;100637.78;4970747;28;20635;-60
2022/07/13 06:20:40;;;;;;;5.73;1.80;;;;;;;23.28;53.77;100641.97;4961770;28;20230;-60
2022/07/13 06:23:09;;;;;;;2.93;2.10;;;;;;;23.33;52.88;100637.91;4981058;28;20180;-60
2022/07/13 06:25:34;;;;;;;7.10;1.80;;;;;;;23.01;53.31;100641.91;4968657;28;20562;-60
2022/07/13 06:28:00;;;;;;;2.70;1.80;;;;;;;23.25;53.27;100642.28;4972459;28;20562;-61
2022/07/13 06:30:25;;;;;;;3.30;1.70;;;;;;;23.50;52.86;100638.81;4963585;28;20274;-60
2022/07/13 06:32:50;;;;;;;5.60;2.07;;;;;;;23.62;50.24;100636.75;4982128;28;20188;-60
2022/07/13 06:35:16;;;;;;;3.37;1.37;;;;;;;23.88;50.40;100637.69;4975448;28;20180;-60
2022/07/13 06:37:41;;;;;;;1.67;1.57;;;;;;;24.31;50.18;100635.91;4972539;28;20187;-64
2022/07/13 06:40:07;;;;;;;3.17;1.63;;;;;;;24.70;47.05;100634.53;4963055;28;20180;-60
2022/07/13 06:42:32;;;;;;;6.93;1.60;;;;;;;24.66;48.50;100628.78;4971252;28;20188;-62
2022/07/13 06:44:57;;;;;;;4.03;1.40;;;;;;;25.36;44.71;100634.47;4972330;28;20187;-61
2022/07/13 06:47:23;;;;;;;6.78;1.80;;;;;;;26.81;41.72;100635.97;4972295;28;20184;-63
2022/07/13 06:49:48;;;;;;;4.82;1.52;;;;;;;27.68;38.57;100630.16;4980887;28;20237;-59
2022/07/13 06:52:14;;;;;;;6.53;1.48;;;;;;;28.74;36.40;100633.38;4979415;28;20768;-59
2022/07/13 06:54:39;;;;;;;4.00;1.40;;;;;;;29.68;34.42;100645.44;4996459;28;20187;-59
2022/07/13 06:57:04;;;;;;;7.47;1.50;;;;;;;30.52;33.25;100648.81;4982733;28;20183;-59
2022/07/13 07:06:13;;;;;;;7.75;1.45;;;;;;;32.05;29.48;100650.59;4957916;28;20227;-61
2022/07/13 07:08:39;;;;;;;3.05;1.35;;;;;;;31.57;30.33;100643.81;4971939;28;20215;-60
2022/07/13 07:11:04;;;;;;;4.70;1.10;;;;;;;31.25;31.01;100647.19;4971199;28;20249;-60
2022/07/13 07:13:29;;;;;;;1.17;1.08;;;;;;;31.53;30.82;100641.59;4991532;28;20697;-59
2022/07/13 07:15:54;;;;;;;8.48;1.42;;;;;;;32.36;29.29;100644.50;4972323;28;20226;-58
2022/07/13 07:18:24;;;;;;;4.40;1.30;;;;;;;32.54;28.66;100641.09;4975399;28;20190;-59
2022/07/13 07:20:50;;;;;;;4.00;1.40;;;;;;;30.93;29.64;100640.84;4976713;28;20223;-60
2022/07/13 07:23:15;;;;;;;5.03;1.40;;;;;;;30.30;31.41;100640.16;4993537;28;20233;-60
2022/07/13 07:25:41;;;;;;;8.85;1.50;;;;;;;29.58;32.39;100639.69;4983178;28;20187;-59
2022/07/13 07:28:07;;;;;;;4.20;1.38;;;;;;;30.18;32.82;100645.25;4981845;28;20204;-59
2022/07/13 07:30:33;;;;;;;8.65;1.45;;;;;;;31.57;29.06;100631.34;4953758;28;20235;-58
2022/07/13 07:32:58;;;;;;;3.20;1.02;;;;;;;33.71;27.17;100634.22;4977229;28;20184;-59
2022/07/13 07:35:24;;;;;;;2.78;1.15;;;;;;;36.44;23.88;100644.84;4966699;28;20196;-59
2022/07/13 07:37:49;;;;;;;1.60;0.82;;;;;;;37.29;21.54;100643.94;4975796;28;20349;-60
2022/07/13 07:40:14;;;;;;;4.38;1.40;;;;;;;35.52;22.89;100635.91;4966865;28;20180;-60
2022/07/13 07:42:40;;;;;;;6.03;1.67;;;;;;;37.20;22.01;100646.25;4982921;28;20240;-60
2022/07/13 07:45:06;;;;;;;1.98;0.82;;;;;;;37.94;20.60;100638.78;4975176;28;20198;-59
2022/07/13 07:47:32;;;;;;;1.88;0.93;;;;;;;37.65;20.56;100644.38;4976077;28;20192;-60
2022/07/13 07:49:57;;;;;;;2.25;0.95;;;;;;;35.37;22.96;100641.78;4974825;28;20695;-60
2022/07/13 07:52:22;;;;;;;6.47;1.30;;;;;;;34.67;26.16;100641.53;4981062;28;20227;-59
2022/07/13 07:54:48;;;;;;;3.92;1.13;;;;;;;34.46;24.81;100640.25;4975500;28;20181;-59
2022/07/13 07:57:14;;;;;;;2.33;0.85;;;;;;;33.58;25.04;100632.56;4974494;28;20604;-59
2022/07/13 07:59:39;;;;;;;2.10;1.02;;;;;;;33.96;27.85;100636.00;4975058;28;20223;-61
2022/07/13 08:02:05;;;;;;;2.33;0.80;;;;;;;34.07;25.44;100627.22;4980498;28;20734;-60
2022/07/13 08:04:31;;;;;;;3.08;1.40;;;;;;;33.36;25.24;100631.41;4970817;28;20189;-59
2022/07/13 08:06:56;;;;;;;7.13;1.40;;;;;;;32.48;26.79;100626.78;4972476;28;20631;-60
2022/07/13 08:09:21;;;;;;;3.13;0.82;;;;;;;33.68;25.98;100616.03;4975037;28;20315;-61
2022/07/13 08:11:48;;;;;;;4.88;0.95;;;;;;;34.68;25.42;100621.81;4978563;28;20660;-61
2022/07/13 08:14:14;;;;;;;2.88;1.05;;;;;;;33.16;27.70;100619.06;4974318;28;20204;-60
2022/07/13 08:16:39;;;;;;;2.83;0.80;;;;;;;31.11;28.96;100613.66;4968196;28;20608;-60
2022/07/13 08:19:05;;;;;;;2.15;1.00;;;;;;;30.20;30.93;100616.66;4986301;28;20722;-60
2022/07/13 08:21:30;;;;;;;2.00;0.90;;;;;;;30.63;31.23;100625.34;4977716;28;20227;-60
2022/07/13 08:23:55;;;;;;;2.47;1.15;;;;;;;31.08;30.51;100617.56;4980264;28;20250;-59
2022/07/13 08:26:23;;;;;;;1.58;0.90;;;;;;;31.90;29.11;100617.09;4985784;28;20214;-59
2022/07/13 08:28:50;;;;;;;3.42;1.17;;;;;;;32.01;28.95;100620.94;4983361;28;20694;-60
2022/07/13 08:31:17;;;;;;;1.33;0.70;;;;;;;32.10;28.59;100618.84;4963549;28;20262;-61
2022/07/13 08:39:12;;;;;;;2.55;1.02;;;;;;;31.48;29.85;100619.31;4980362;28;20282;-60
2022/07/13 08:41:38;;;;;;;4.03;0.90;;;;;;;31.68;29.03;100621.91;4964361;28;20260;-60
2022/07/13 08:44:04;;;;;;;4.82;0.90;;;;;;;31.62;28.41;100607.59;4969864;28;20192;-61
2022/07/13 08:46:29;;;;;;;3.38;0.98;;;;;;;31.63;28.83;100609.25;4981840;28;20187;-60
2022/07/13 08:48:56;;;;;;;3.22;0.80;;;;;;;31.93;28.54;100611.38;4973962;28;20219;-61
2022/07/13 08:51:24;;;;;;;1.60;0.88;;;;;;;32.82;28.05;100614.06;4965978;28;20224;-61
2022/07/13 08:53:54;;;;;;;3.33;0.70;;;;;;;33.43;26.41;100613.44;4980392;28;20187;-60
2022/07/13 08:56:20;;;;;;;3.72;0.65;;;;;;;33.03;26.62;100611.19;4969819;28;20396;-60
2022/07/13 08:58:45;;;;;;;4.57;1.00;;;;;;;32.50;27.11;100610.63;4962432;28;20692;-62
2022/07/13 09:01:11;;;;;;;8.25;0.98;;;;;;;32.15;27.54;100617.19;4966089;28;20238;-61
2022/07/13 09:03:37;;;;;;;1.90;1.00;;;;;;;32.51;27.79;100610.41;4975385;28;20615;-60
2022/07/13 09:06:03;;;;;;;8.38;1.17;;;;;;;34.02;25.57;100611.06;4976586;28;20203;-60
2022/07/13 09:08:28;;;;;;;6.60;1.00;;;;;;;34.36;24.52;100608.75;4982857;28;20646;-62
2022/07/13 09:10:57;;;;;;;4.05;0.98;;;;;;;34.75;24.67;100608.31;4971339;28;20238;-60
2022/07/13 09:13:33;;;;;;;3.85;0.93;;;;;;;34.11;24.87;100603.56;4976981;28;20181;-60
2022/07/13 09:16:31;;;;;;;2.03;0.70;;;;;;;34.39;24.88;100602.94;4972528;28;20279;-61
2022/07/13 09:18:59;;;;;;;1.30;0.75;;;;;;;37.35;20.07;100602.72;4974366;28;20199;-61
2022/07/13 09:21:26;;;;;;;4.20;0.70;;;;;;;38.90;19.16;100604.06;4964720;28;20325;-61
2022/07/13 09:23:56;;;;;;;1.00;0.77;;;;;;;40.23;18.15;100607.38;4976828;28;20245;-61
2022/07/13 09:26:21;;;;;;;1.15;0.70;;;;;;;40.01;18.04;100606.53;4974819;28;20237;-60
2022/07/13 09:28:49;;;;;;;4.97;0.55;;;;;;;38.14;19.32;100597.88;4990473;28;20211;-61
2022/07/13 09:31:16;;;;;;;2.80;0.88;;;;;;;37.92;18.67;100596.09;4964473;28;20238;-61
2022/07/13 09:33:43;;;;;;;6.80;0.65;;;;;;;37.29;19.66;100592.97;4976150;28;20231;-61
2022/07/13 09:36:11;;;;;;;0.75;0.57;;;;;;;35.93;20.64;100588.53;4977781;28;20226;-61
2022/07/13 09:38:44;;;;;;;1.30;0.60;;;;;;;35.69;20.47;100582.47;4981521;28;20221;-60
2022/07/13 09:41:18;;;;;;;0.88;0.57;;;;;;;35.25;22.44;100582.13;4982066;28;20336;-60
2022/07/13 09:47:02;;;;;;;2.88;1.00;;;;;;;34.81;22.50;100591.34;4990624;28;20301;-61
2022/07/13 09:49:33;;;;;;;1.67;0.55;;;;;;;35.64;21.15;100582.38;4973821;28;20297;-60
2022/07/13 09:52:00;;;;;;;1.75;0.60;;;;;;;36.07;21.10;100580.22;4964554;28;20227;-61
2022/07/13 09:54:30;;;;;;;1.75;0.68;;;;;;;35.44;20.65;100580.13;4971790;28;20234;-61
2022/07/13 09:57:00;;;;;;;1.38;0.47;;;;;;;35.70;21.59;100582.22;4979333;28;20184;-61
2022/07/13 09:59:28;;;;;;;1.33;0.60;;;;;;;36.79;19.20;100581.31;5002944;28;20187;-61
2022/07/13 10:01:55;;;;;;;2.92;0.90;;;;;;;36.15;20.06;100577.13;4979045;28;20267;-61
2022/07/13 10:04:22;;;;;;;0.88;0.50;;;;;;;36.97;20.67;100572.19;4972392;28;20186;-61
2022/07/13 10:06:49;;;;;;;1.85;0.47;;;;;;;35.83;21.62;100577.63;4967552;28;20223;-60
2022/07/13 10:09:14;;;;;;;5.82;0.70;;;;;;;34.75;22.17;100569.03;4979893;28;20242;-61
2022/07/13 10:11:40;;;;;;;1.45;0.75;;;;;;;34.91;22.47;100570.22;4975545;28;20239;-60
2022/07/13 10:14:08;;;;;;;0.55;0.47;;;;;;;33.91;22.26;100567.31;4976217;28;20566;-60
2022/07/13 10:16:33;;;;;;;0.73;0.60;;;;;;;33.81;22.90;100564.34;4968818;28;20195;-61
2022/07/13 10:19:03;;;;;;;2.60;0.70;;;;;;;34.00;23.69;100566.97;4980939;28;20199;-62
2022/07/13 10:21:47;;;;;;;2.22;0.70;;;;;;;34.28;23.76;100561.00;4985994;28;20214;-60
2022/07/13 10:24:17;;;;;;;1.08;0.73;;;;;;;34.73;22.30;100556.97;4974072;28;20191;-60
2022/07/13 10:26:42;;;;;;;0.80;0.70;;;;;;;33.76;22.50;100562.34;4973981;28;20262;-60
2022/07/13 10:29:11;;;;;;;1.98;1.00;;;;;;;33.51;22.88;100557.16;4977048;28;20626;-60
2022/07/13 10:31:40;;;;;;;2.00;0.70;;;;;;;33.88;23.97;100550.94;4983459;28;20223;-61
2022/07/13 10:34:09;;;;;;;5.22;1.20;;;;;;;34.03;23.53;100561.19;4965672;28;20195;-61
2022/07/13 10:36:57;;;;;;;4.07;0.95;;;;;;;33.68;23.54;100557.34;4971618;28;20547;-61
2022/07/13 10:39:27;;;;;;;1.58;1.00;;;;;;;33.50;23.42;100550.19;4987654;28;20187;-59
2022/07/13 10:42:10;;;;;;;1.13;0.73;;;;;;;34.08;24.41;100555.97;4977602;28;20223;-64
2022/07/13 10:44:38;;;;;;;2.42;0.82;;;;;;;34.36;23.42;100552.69;4987986;28;20267;-64
2022/07/13 10:47:08;;;;;;;1.65;0.90;;;;;;;35.19;24.11;100551.78;4973302;28;20643;-64
2022/07/13 10:49:38;;;;;;;5.25;0.90;;;;;;;35.91;23.07;100545.16;4975445;28;20206;-64
2022/07/13 10:52:19;;;;;;;1.63;0.77;;;;;;;36.07;22.30;100548.88;4977847;28;20235;-65
2022/07/13 10:55:11;;;;;;;6.97;0.80;;;;;;;35.52;21.26;100545.78;4971783;28;20266;-65
2022/07/13 10:57:44;;;;;;;2.28;0.73;;;;;;;35.13;23.08;100542.06;4971153;28;20278;-64
2022/07/13 11:00:28;;;;;;;6.65;0.80;;;;;;;35.31;22.06;100538.41;4956426;28;20294;-64
2022/07/13 11:03:07;;;;;;;3.03;0.45;;;;;;;35.51;21.69;100538.84;4963617;28;20596;-65
2022/07/13 11:05:36;;;;;;;0.50;0.50;;;;;;;35.65;21.19;100547.38;4987071;28;20639;-66
2022/07/13 11:08:12;;;;;;;0.90;0.80;;;;;;;33.62;19.79;100537.72;4970768;28;20264;-65
2022/07/13 11:10:38;;;;;;;2.25;0.60;;;;;;;34.04;22.29;100539.59;4969752;28;20350;-66
2022/07/13 11:13:13;;;;;;;3.58;0.60;;;;;;;34.80;20.64;100535.47;4988672;28;20282;-67
2022/07/13 11:15:44;;;;;;;0.93;0.60;;;;;;;34.83;21.10;100527.81;4968763;28;20712;-64
2022/07/13 11:18:22;;;;;;;1.83;0.75;;;;;;;34.66;19.62;100529.56;4980351;28;20659;-65
2022/07/13 11:20:56;;;;;;;0.60;0.60;;;;;;;34.52;18.93;100529.81;4964279;28;20237;-64
2022/07/13 11:26:22;;;;;;;2.65;0.65;;;;;;;33.77;18.37;100523.97;4986665;28;20195;-65
2022/07/13 11:29:04;;;;;;;0.60;0.60;;;;;;;33.27;19.62;100518.91;4977289;28;20681;-65
2022/07/13 11:31:31;;;;;;;7.05;1.45;;;;;;;32.97;21.48;100515.13;4948694;28;20242;-64
2022/07/13 11:33:56;;;;;;;3.78;0.70;;;;;;;32.82;20.69;100512.00;4969106;28;20575;-64
2022/07/13 11:36:24;;;;;;;1.50;0.80;;;;;;;32.86;21.63;100507.06;4970378;28;20215;-63
2022/07/13 11:38:49;;;;;;;0.88;0.80;;;;;;;32.90;21.52;100508.25;4973169;28;20192;-63
2022/07/13 11:41:20;;;;;;;1.88;0.68;;;;;;;33.00;21.45;100500.56;4972167;28;20678;-65